sensor_id;sensor_type;location;lat;lon;timestamp;pressure;altitude;pressure_sealevel;temperature;humidity
26192;BME280;13935;55.672;37.764;2024-02-26T00:00:59;101204.16;;;0.79;83.07
26192;BME280;13935;55.672;37.764;2024-02-26T00:04:24;101216.03;;;0.88;81.80
26192;BME280;13935;55.672;37.764;2024-02-26T00:05:38;101207.16;;;0.78;82.13
26192;BME280;13935;55.672;37.764;2024-02-26T00:06:54;101208.69;;;0.66;82.09
26192;BME280;13935;55.672;37.764;2024-02-26T00:08:48;101203.81;;;0.86;82.79
26192;BME280;13935;55.672;37.764;2024-02-26T00:10:18;101205.44;;;0.87;82.75
26192;BME280;13935;55.672;37.764;2024-02-26T00:11:28;101207.16;;;0.78;81.52
26192;BME280;13935;55.672;37.764;2024-02-26T00:13:03;101206.06;;;0.79;82.15
26192;BME280;13935;55.672;37.764;2024-02-26T00:14:09;101209.31;;;0.81;81.62
26192;BME280;13935;55.672;37.764;2024-02-26T00:15:14;101194.69;;;0.77;81.79
26192;BME280;13935;55.672;37.764;2024-02-26T00:16:23;101199.66;;;0.70;82.17
26192;BME280;13935;55.672;37.764;2024-02-26T00:17:26;101196.69;;;0.67;82.00
26192;BME280;13935;55.672;37.764;2024-02-26T00:18:33;101203.78;;;0.63;82.50
26192;BME280;13935;55.672;37.764;2024-02-26T00:19:40;101199.81;;;0.55;81.59
26192;BME280;13935;55.672;37.764;2024-02-26T00:20:47;101197.09;;;0.55;81.59
26192;BME280;13935;55.672;37.764;2024-02-26T00:21:55;101200.84;;;0.59;82.22
26192;BME280;13935;55.672;37.764;2024-02-26T00:23:05;101197.63;;;0.57;82.25
26192;BME280;13935;55.672;37.764;2024-02-26T00:24:22;101211.47;;;0.61;82.19
26192;BME280;13935;55.672;37.764;2024-02-26T00:25:34;101198.03;;;0.69;81.94
26192;BME280;13935;55.672;37.764;2024-02-26T00:27:02;101196.41;;;0.68;81.82
26192;BME280;13935;55.672;37.764;2024-02-26T00:28:18;101196.41;;;0.68;82.31
26192;BME280;13935;55.672;37.764;2024-02-26T00:29:44;101189.91;;;0.64;81.86
26192;BME280;13935;55.672;37.764;2024-02-26T00:30:53;101197.56;;;0.62;82.02
26192;BME280;13935;55.672;37.764;2024-02-26T00:32:36;101197.94;;;0.51;82.04
26192;BME280;13935;55.672;37.764;2024-02-26T00:33:49;101196.59;;;0.48;82.24
26192;BME280;13935;55.672;37.764;2024-02-26T00:34:56;101204.72;;;0.53;82.32
26192;BME280;13935;55.672;37.764;2024-02-26T00:36:04;101196.59;;;0.48;82.69
26192;BME280;13935;55.672;37.764;2024-02-26T00:37:17;101195.03;;;0.42;82.69
26192;BME280;13935;55.672;37.764;2024-02-26T00:38:37;101190.38;;;0.48;83.09
26192;BME280;13935;55.672;37.764;2024-02-26T00:39:43;101193.94;;;0.43;83.07
26192;BME280;13935;55.672;37.764;2024-02-26T00:41:13;101194.06;;;0.33;83.06
26192;BME280;13935;55.672;37.764;2024-02-26T00:42:29;101186.31;;;0.45;83.08
26192;BME280;13935;55.672;37.764;2024-02-26T00:43:58;101194.19;;;0.47;84.39
26192;BME280;13935;55.672;37.764;2024-02-26T00:45:08;101185.25;;;0.41;84.15
26192;BME280;13935;55.672;37.764;2024-02-26T00:46:15;101180.88;;;0.45;84.23
26192;BME280;13935;55.672;37.764;2024-02-26T00:47:45;101183.31;;;0.47;84.46
26192;BME280;13935;55.672;37.764;2024-02-26T00:48:55;101181.34;;;0.52;84.46
26192;BME280;13935;55.672;37.764;2024-02-26T00:50:02;101186.09;;;0.42;83.54
26192;BME280;13935;55.672;37.764;2024-02-26T00:51:05;101182.94;;;0.53;83.73
26192;BME280;13935;55.672;37.764;2024-02-26T00:52:12;101186.78;;;0.52;84.81
26192;BME280;13935;55.672;37.764;2024-02-26T00:53:33;101172.66;;;0.50;84.62
26192;BME280;13935;55.672;37.764;2024-02-26T00:54:44;101194.41;;;0.50;83.53
26192;BME280;13935;55.672;37.764;2024-02-26T00:55:49;101190.19;;;0.39;83.61
26192;BME280;13935;55.672;37.764;2024-02-26T00:56:54;101185.22;;;0.46;84.05
26192;BME280;13935;55.672;37.764;2024-02-26T00:58:13;101182.50;;;0.46;83.53
26192;BME280;13935;55.672;37.764;2024-02-26T00:59:18;101190.38;;;0.48;83.45
26192;BME280;13935;55.672;37.764;2024-02-26T01:00:30;101191.16;;;0.48;84.10
26192;BME280;13935;55.672;37.764;2024-02-26T01:02:19;101184.75;;;0.39;83.99
26192;BME280;13935;55.672;37.764;2024-02-26T01:03:27;101181.34;;;0.52;84.81
26192;BME280;13935;55.672;37.764;2024-02-26T01:04:39;101188.38;;;0.53;84.26
26192;BME280;13935;55.672;37.764;2024-02-26T01:06:09;101180.28;;;0.48;84.58
26192;BME280;13935;55.672;37.764;2024-02-26T01:07:16;101183.06;;;0.43;84.56
26192;BME280;13935;55.672;37.764;2024-02-26T01:08:34;101174.84;;;0.48;84.86
26192;BME280;13935;55.672;37.764;2024-02-26T01:09:46;101176.47;;;0.49;85.51
26192;BME280;13935;55.672;37.764;2024-02-26T01:11:09;101174.84;;;0.48;84.67
26192;BME280;13935;55.672;37.764;2024-02-26T01:12:47;101180.41;;;0.38;83.70
26192;BME280;13935;55.672;37.764;2024-02-26T01:14:04;101170.06;;;0.35;83.72
26192;BME280;13935;55.672;37.764;2024-02-26T01:15:14;101174.97;;;0.38;85.04
26192;BME280;13935;55.672;37.764;2024-02-26T01:16:23;101181.78;;;0.36;85.19
26192;BME280;13935;55.672;37.764;2024-02-26T01:17:53;101187.00;;;0.32;83.52
26192;BME280;13935;55.672;37.764;2024-02-26T01:19:05;101183.75;;;0.30;83.55
26192;BME280;13935;55.672;37.764;2024-02-26T01:20:23;101179.81;;;0.41;84.73
26192;BME280;13935;55.672;37.764;2024-02-26T01:21:40;101192.44;;;0.32;84.00
26192;BME280;13935;55.672;37.764;2024-02-26T01:23:12;101183.97;;;0.34;84.97
26192;BME280;13935;55.672;37.764;2024-02-26T01:24:29;101183.19;;;0.28;84.49
26192;BME280;13935;55.672;37.764;2024-02-26T01:25:51;101185.91;;;0.28;85.34
26192;BME280;13935;55.672;37.764;2024-02-26T01:27:15;101177.72;;;0.33;84.98
26192;BME280;13935;55.672;37.764;2024-02-26T01:28:36;101171.69;;;0.36;84.88
26192;BME280;13935;55.672;37.764;2024-02-26T01:29:50;101177.72;;;0.33;84.27
26192;BME280;13935;55.672;37.764;2024-02-26T01:31:03;101192.00;;;0.20;84.32
26192;BME280;13935;55.672;37.764;2024-02-26T01:32:18;101174.81;;;0.25;83.86
26192;BME280;13935;55.672;37.764;2024-02-26T01:33:50;101171.47;;;0.33;83.82
26192;BME280;13935;55.672;37.764;2024-02-26T01:35:06;101172.09;;;0.25;84.49
26192;BME280;13935;55.672;37.764;2024-02-26T01:36:44;101169.59;;;0.28;83.95
26192;BME280;13935;55.672;37.764;2024-02-26T01:37:51;101177.16;;;0.36;83.64
26192;BME280;13935;55.672;37.764;2024-02-26T01:38:58;101171.22;;;0.29;82.96
26192;BME280;13935;55.672;37.764;2024-02-26T01:40:05;101165.78;;;0.29;83.54
26192;BME280;13935;55.672;37.764;2024-02-26T01:41:15;101166.03;;;0.33;82.66
26192;BME280;13935;55.672;37.764;2024-02-26T01:42:19;101175.53;;;0.35;82.73
26192;BME280;13935;55.672;37.764;2024-02-26T01:43:24;101177.63;;;0.43;83.61
26192;BME280;13935;55.672;37.764;2024-02-26T01:44:31;101172.19;;;0.43;83.51
26192;BME280;13935;55.672;37.764;2024-02-26T01:45:47;101173.22;;;0.24;83.60
26192;BME280;13935;55.672;37.764;2024-02-26T01:46:56;101173.22;;;0.47;83.39
26192;BME280;13935;55.672;37.764;2024-02-26T01:48:11;101163.59;;;0.31;82.91
26192;BME280;13935;55.672;37.764;2024-02-26T01:49:19;101172.84;;;0.30;84.37
26192;BME280;13935;55.672;37.764;2024-02-26T01:50:41;101167.41;;;0.30;83.86
26192;BME280;13935;55.672;37.764;2024-02-26T01:51:54;101163.06;;;0.29;83.92
26192;BME280;13935;55.672;37.764;2024-02-26T01:53:12;101175.53;;;0.35;84.71
26192;BME280;13935;55.672;37.764;2024-02-26T01:54:21;101169.91;;;0.27;84.30
26192;BME280;13935;55.672;37.764;2024-02-26T01:55:35;101171.81;;;0.26;84.62
26192;BME280;13935;55.672;37.764;2024-02-26T01:56:44;101170.66;;;0.32;84.44
26192;BME280;13935;55.672;37.764;2024-02-26T01:58:05;101161.88;;;0.40;84.19
26192;BME280;13935;55.672;37.764;2024-02-26T01:59:44;101169.94;;;0.22;83.57
26192;BME280;13935;55.672;37.764;2024-02-26T02:00:56;101163.00;;;0.34;84.18
26192;BME280;13935;55.672;37.764;2024-02-26T02:02:05;101168.44;;;0.34;84.70
26192;BME280;13935;55.672;37.764;2024-02-26T02:03:19;101162.44;;;0.37;84.07
26192;BME280;13935;55.672;37.764;2024-02-26T02:04:35;101158.16;;;0.31;84.18
26192;BME280;13935;55.672;37.764;2024-02-26T02:05:48;101164.81;;;0.20;84.36
26192;BME280;13935;55.672;37.764;2024-02-26T02:06:55;101166.13;;;0.23;85.99
26192;BME280;13935;55.672;37.764;2024-02-26T02:08:15;101155.50;;;0.26;84.50
26192;BME280;13935;55.672;37.764;2024-02-26T02:09:35;101156.78;;;0.34;85.33
26192;BME280;13935;55.672;37.764;2024-02-26T02:11:12;101155.31;;;0.41;85.02
26192;BME280;13935;55.672;37.764;2024-02-26T02:12:27;101161.00;;;0.16;86.43
26192;BME280;13935;55.672;37.764;2024-02-26T02:13:34;101154.91;;;0.29;86.40
26192;BME280;13935;55.672;37.764;2024-02-26T02:14:43;101162.09;;;0.20;85.94
26192;BME280;13935;55.672;37.764;2024-02-26T02:15:48;101159.25;;;0.30;86.26
26192;BME280;13935;55.672;37.764;2024-02-26T02:16:56;101157.75;;;0.19;85.90
26192;BME280;13935;55.672;37.764;2024-02-26T02:18:13;101159.38;;;0.20;86.38
26192;BME280;13935;55.672;37.764;2024-02-26T02:19:25;101152.44;;;0.04;86.67
26192;BME280;13935;55.672;37.764;2024-02-26T02:20:34;101161.66;;;0.08;87.09
26192;BME280;13935;55.672;37.764;2024-02-26T02:21:41;101157.78;;;0.14;86.85
26192;BME280;13935;55.672;37.764;2024-02-26T02:23:02;101156.69;;;0.15;86.78
26192;BME280;13935;55.672;37.764;2024-02-26T02:24:09;101152.44;;;0.04;87.14
26192;BME280;13935;55.672;37.764;2024-02-26T02:25:19;101158.47;;;0.01;87.66
26192;BME280;13935;55.672;37.764;2024-02-26T02:26:34;101158.34;;;0.11;87.92
26192;BME280;13935;55.672;37.764;2024-02-26T02:27:41;101153.97;;;0.15;87.67
26192;BME280;13935;55.672;37.764;2024-02-26T02:29:04;101156.66;;;0.20;87.06
26192;BME280;13935;55.672;37.764;2024-02-26T02:30:13;101157.19;;;0.17;87.22
26192;BME280;13935;55.672;37.764;2024-02-26T02:31:19;101156.22;;;0.32;87.28
26192;BME280;13935;55.672;37.764;2024-02-26T02:32:21;101159.00;;;0.27;87.01
26192;BME280;13935;55.672;37.764;2024-02-26T02:33:36;101160.09;;;0.26;86.70
26192;BME280;13935;55.672;37.764;2024-02-26T02:34:52;101155.03;;;0.19;85.81
26192;BME280;13935;55.672;37.764;2024-02-26T02:36:00;101160.53;;;0.09;86.95
26192;BME280;13935;55.672;37.764;2024-02-26T02:37:03;101150.59;;;0.00;87.64
26192;BME280;13935;55.672;37.764;2024-02-26T02:38:13;101148.66;;;0.00;87.53
26192;BME280;13935;55.672;37.764;2024-02-26T02:39:21;101151.94;;;-0.03;87.73
26192;BME280;13935;55.672;37.764;2024-02-26T02:40:30;101155.06;;;0.14;88.89
26192;BME280;13935;55.672;37.764;2024-02-26T02:41:35;101144.81;;;0.06;88.41
26192;BME280;13935;55.672;37.764;2024-02-26T02:42:40;101150.50;;;0.10;87.70
26192;BME280;13935;55.672;37.764;2024-02-26T02:43:43;101155.09;;;0.09;87.69
26192;BME280;13935;55.672;37.764;2024-02-26T02:44:46;101143.78;;;0.02;87.50
26192;BME280;13935;55.672;37.764;2024-02-26T02:45:50;101151.94;;;-0.03;87.61
26192;BME280;13935;55.672;37.764;2024-02-26T02:46:55;101145.38;;;0.03;87.98
26192;BME280;13935;55.672;37.764;2024-02-26T02:47:59;101138.88;;;-0.01;87.73
26192;BME280;13935;55.672;37.764;2024-02-26T02:49:14;101152.00;;;-0.07;88.29
26192;BME280;13935;55.672;37.764;2024-02-26T02:50:21;101150.84;;;-0.02;88.43
26192;BME280;13935;55.672;37.764;2024-02-26T02:51:26;101148.09;;;0.03;88.98
26192;BME280;13935;55.672;37.764;2024-02-26T02:53:04;101146.50;;;-0.03;88.02
26192;BME280;13935;55.672;37.764;2024-02-26T02:54:07;101143.28;;;-0.04;89.06
26192;BME280;13935;55.672;37.764;2024-02-26T02:55:17;101149.66;;;0.09;89.09
26192;BME280;13935;55.672;37.764;2024-02-26T02:56:27;101150.81;;;0.03;89.23
26192;BME280;13935;55.672;37.764;2024-02-26T02:57:33;101155.69;;;0.06;87.82
26192;BME280;13935;55.672;37.764;2024-02-26T02:58:35;101153.25;;;0.05;87.48
26192;BME280;13935;55.672;37.764;2024-02-26T02:59:43;101150.19;;;0.11;88.17
26192;BME280;13935;55.672;37.764;2024-02-26T03:00:48;101150.34;;;-0.03;88.82
26192;BME280;13935;55.672;37.764;2024-02-26T03:02:43;101148.38;;;0.02;88.29
26192;BME280;13935;55.672;37.764;2024-02-26T03:03:55;101161.94;;;0.07;88.61
26192;BME280;13935;55.672;37.764;2024-02-26T03:05:00;101157.03;;;0.09;88.40
26192;BME280;13935;55.672;37.764;2024-02-26T03:06:19;101148.56;;;0.10;87.69
26192;BME280;13935;55.672;37.764;2024-02-26T03:07:36;101155.25;;;-0.05;89.64
26192;BME280;13935;55.672;37.764;2024-02-26T03:08:39;101150.81;;;0.03;89.46
26192;BME280;13935;55.672;37.764;2024-02-26T03:09:45;101141.56;;;0.04;88.54
26192;BME280;13935;55.672;37.764;2024-02-26T03:10:53;101144.03;;;0.01;87.84
26192;BME280;13935;55.672;37.764;2024-02-26T03:11:57;101151.94;;;-0.03;88.41
26192;BME280;13935;55.672;37.764;2024-02-26T03:13:05;101147.09;;;-0.05;89.26
26192;BME280;13935;55.672;37.764;2024-02-26T03:14:21;101143.00;;;-0.03;89.88
26192;BME280;13935;55.672;37.764;2024-02-26T03:15:46;101143.66;;;0.12;89.34
26192;BME280;13935;55.672;37.764;2024-02-26T03:17:01;101146.50;;;0.02;88.32
26192;BME280;13935;55.672;37.764;2024-02-26T03:18:11;101149.22;;;-0.03;88.39
26192;BME280;13935;55.672;37.764;2024-02-26T03:19:16;101152.25;;;-0.04;88.27
26192;BME280;13935;55.672;37.764;2024-02-26T03:20:33;101145.47;;;-0.06;89.12
26192;BME280;13935;55.672;37.764;2024-02-26T03:21:37;101150.34;;;-0.03;88.40
26192;BME280;13935;55.672;37.764;2024-02-26T03:22:41;101144.44;;;-0.15;88.57
26192;BME280;13935;55.672;37.764;2024-02-26T03:23:46;101146.56;;;-0.07;89.12
26192;BME280;13935;55.672;37.764;2024-02-26T03:24:51;101152.59;;;-0.15;89.50
26192;BME280;13935;55.672;37.764;2024-02-26T03:25:56;101148.78;;;-0.14;88.36
26192;BME280;13935;55.672;37.764;2024-02-26T03:27:05;101136.88;;;-0.18;89.61
26192;BME280;13935;55.672;37.764;2024-02-26T03:28:13;101146.41;;;-0.21;89.17
26192;BME280;13935;55.672;37.764;2024-02-26T03:29:17;101141.28;;;-0.22;90.17
26192;BME280;13935;55.672;37.764;2024-02-26T03:30:23;101143.13;;;-0.18;90.46
26192;BME280;13935;55.672;37.764;2024-02-26T03:31:28;101142.84;;;-0.16;90.07
26192;BME280;13935;55.672;37.764;2024-02-26T03:32:33;101141.03;;;-0.26;89.73
26192;BME280;13935;55.672;37.764;2024-02-26T03:33:39;101139.66;;;-0.23;89.16
26192;BME280;13935;55.672;37.764;2024-02-26T03:34:45;101144.50;;;-0.20;89.61
26192;BME280;13935;55.672;37.764;2024-02-26T03:35:49;101134.22;;;-0.23;90.69
26192;BME280;13935;55.672;37.764;2024-02-26T03:36:53;101139.97;;;-0.30;90.39
26192;BME280;13935;55.672;37.764;2024-02-26T03:37:57;101146.78;;;-0.32;91.62
26192;BME280;13935;55.672;37.764;2024-02-26T03:39:01;101134.25;;;-0.28;91.19
26192;BME280;13935;55.672;37.764;2024-02-26T03:40:13;101142.88;;;-0.21;90.68
26192;BME280;13935;55.672;37.764;2024-02-26T03:41:24;101145.41;;;-0.30;91.04
26192;BME280;13935;55.672;37.764;2024-02-26T03:42:27;101139.97;;;-0.30;91.07
26192;BME280;13935;55.672;37.764;2024-02-26T03:43:34;101130.16;;;-0.26;90.81
26192;BME280;13935;55.672;37.764;2024-02-26T03:44:39;101147.25;;;-0.25;90.72
26192;BME280;13935;55.672;37.764;2024-02-26T03:45:55;101150.53;;;-0.23;90.41
26192;BME280;13935;55.672;37.764;2024-02-26T03:47:29;101138.50;;;-0.17;90.81
26192;BME280;13935;55.672;37.764;2024-02-26T03:48:33;101139.00;;;-0.15;90.16
26192;BME280;13935;55.672;37.764;2024-02-26T03:49:38;101135.25;;;-0.19;89.68
26192;BME280;13935;55.672;37.764;2024-02-26T03:50:45;101150.53;;;-0.23;90.14
26192;BME280;13935;55.672;37.764;2024-02-26T03:51:48;101143.50;;;-0.29;90.82
26192;BME280;13935;55.672;37.764;2024-02-26T03:53:38;101137.22;;;-0.25;91.40
26192;BME280;13935;55.672;37.764;2024-02-26T03:54:54;101142.97;;;-0.31;92.29
26192;BME280;13935;55.672;37.764;2024-02-26T03:56:12;101149.53;;;-0.37;92.18
26192;BME280;13935;55.672;37.764;2024-02-26T03:57:22;101149.00;;;-0.34;91.13
26192;BME280;13935;55.672;37.764;2024-02-26T03:58:29;101149.44;;;-0.27;91.66
26192;BME280;13935;55.672;37.764;2024-02-26T03:59:36;101141.38;;;-0.37;92.39
26192;BME280;13935;55.672;37.764;2024-02-26T04:00:47;101146.72;;;-0.27;92.81
26192;BME280;13935;55.672;37.764;2024-02-26T04:01:53;101151.66;;;-0.29;91.90
26192;BME280;13935;55.672;37.764;2024-02-26T04:02:56;101146.47;;;-0.26;92.91
26192;BME280;13935;55.672;37.764;2024-02-26T04:03:59;101139.72;;;-0.33;91.99
26192;BME280;13935;55.672;37.764;2024-02-26T04:05:09;101140.75;;;-0.24;92.06
26192;BME280;13935;55.672;37.764;2024-02-26T04:06:30;101146.78;;;-0.32;91.86
26192;BME280;13935;55.672;37.764;2024-02-26T04:07:51;101143.31;;;-0.38;92.57
26192;BME280;13935;55.672;37.764;2024-02-26T04:09:01;101143.06;;;-0.41;92.97
26192;BME280;13935;55.672;37.764;2024-02-26T04:10:28;101145.50;;;-0.40;92.74
26192;BME280;13935;55.672;37.764;2024-02-26T04:11:50;101144.66;;;-0.40;92.99
26192;BME280;13935;55.672;37.764;2024-02-26T04:13:46;101146.63;;;-0.46;93.41
26192;BME280;13935;55.672;37.764;2024-02-26T04:15:04;101145.97;;;-0.33;93.21
26192;BME280;13935;55.672;37.764;2024-02-26T04:16:25;101151.16;;;-0.36;93.41
26192;BME280;13935;55.672;37.764;2024-02-26T04:17:33;101145.72;;;-0.36;93.65
26192;BME280;13935;55.672;37.764;2024-02-26T04:18:40;101145.16;;;-0.33;93.51
26192;BME280;13935;55.672;37.764;2024-02-26T04:19:49;101147.38;;;-0.35;93.02
26192;BME280;13935;55.672;37.764;2024-02-26T04:20:53;101147.88;;;-0.33;92.83
26192;BME280;13935;55.672;37.764;2024-02-26T04:21:58;101137.03;;;-0.38;93.92
26192;BME280;13935;55.672;37.764;2024-02-26T04:23:16;101147.38;;;-0.35;94.11
26192;BME280;13935;55.672;37.764;2024-02-26T04:24:23;101147.91;;;-0.38;93.31
26192;BME280;13935;55.672;37.764;2024-02-26T04:25:36;101152.78;;;-0.35;93.79
26192;BME280;13935;55.672;37.764;2024-02-26T04:26:45;101153.94;;;-0.41;93.89
26192;BME280;13935;55.672;37.764;2024-02-26T04:27:49;101147.66;;;-0.42;93.74
26192;BME280;13935;55.672;37.764;2024-02-26T04:29:01;101156.03;;;-0.33;93.80
26192;BME280;13935;55.672;37.764;2024-02-26T04:30:05;101155.47;;;-0.30;93.83
26192;BME280;13935;55.672;37.764;2024-02-26T04:31:09;101153.31;;;-0.33;94.30
26192;BME280;13935;55.672;37.764;2024-02-26T04:32:10;101155.47;;;-0.30;94.09
26192;BME280;13935;55.672;37.764;2024-02-26T04:33:14;101156.00;;;-0.28;94.02
26192;BME280;13935;55.672;37.764;2024-02-26T04:34:16;101154.88;;;-0.27;94.38
26192;BME280;13935;55.672;37.764;2024-02-26T04:35:18;101160.31;;;-0.22;94.07
26192;BME280;13935;55.672;37.764;2024-02-26T04:36:20;101159.84;;;-0.34;93.58
26192;BME280;13935;55.672;37.764;2024-02-26T04:37:23;101151.22;;;-0.41;94.38
26192;BME280;13935;55.672;37.764;2024-02-26T04:38:25;101156.84;;;-0.33;95.06
26192;BME280;13935;55.672;37.764;2024-02-26T04:39:29;101145.63;;;-0.26;94.70
26192;BME280;13935;55.672;37.764;2024-02-26T04:40:31;101148.41;;;-0.31;94.36
26192;BME280;13935;55.672;37.764;2024-02-26T04:41:33;101149.19;;;-0.31;94.29
26192;BME280;13935;55.672;37.764;2024-02-26T04:42:37;101151.97;;;-0.36;94.85
26192;BME280;13935;55.672;37.764;2024-02-26T04:43:39;101152.75;;;-0.30;94.65
26192;BME280;13935;55.672;37.764;2024-02-26T04:44:43;101152.78;;;-0.35;95.29
26192;BME280;13935;55.672;37.764;2024-02-26T04:45:46;101153.34;;;-0.38;95.09
26192;BME280;13935;55.672;37.764;2024-02-26T04:46:48;101161.53;;;-0.43;95.18
26192;BME280;13935;55.672;37.764;2024-02-26T04:47:50;101156.84;;;-0.33;95.14
26192;BME280;13935;55.672;37.764;2024-02-26T04:48:53;101156.09;;;-0.43;95.84
26192;BME280;13935;55.672;37.764;2024-02-26T04:49:58;101163.16;;;-0.42;95.36
26192;BME280;13935;55.672;37.764;2024-02-26T04:51:00;101159.38;;;-0.41;95.94
26192;BME280;13935;55.672;37.764;2024-02-26T04:52:03;101163.75;;;-0.50;96.21
26192;BME280;13935;55.672;37.764;2024-02-26T04:53:08;101158.88;;;-0.48;95.89
26192;BME280;13935;55.672;37.764;2024-02-26T04:54:10;101150.44;;;-0.47;96.61
26192;BME280;13935;55.672;37.764;2024-02-26T04:55:11;101156.34;;;-0.40;96.36
26192;BME280;13935;55.672;37.764;2024-02-26T04:56:16;101156.66;;;-0.41;96.24
26192;BME280;13935;55.672;37.764;2024-02-26T04:57:18;101150.75;;;-0.53;96.83
26192;BME280;13935;55.672;37.764;2024-02-26T04:58:21;101153.94;;;-0.41;96.91
26192;BME280;13935;55.672;37.764;2024-02-26T04:59:23;101151.22;;;-0.41;97.73
26192;BME280;13935;55.672;37.764;2024-02-26T05:00:26;101154.00;;;-0.51;97.01
26192;BME280;13935;55.672;37.764;2024-02-26T05:01:28;101159.38;;;-0.46;97.20
26192;BME280;13935;55.672;37.764;2024-02-26T05:02:31;101149.03;;;-0.44;97.86
26192;BME280;13935;55.672;37.764;2024-02-26T05:03:38;101151.22;;;-0.46;98.30
26192;BME280;13935;55.672;37.764;2024-02-26T05:04:40;101149.63;;;-0.52;98.73
26192;BME280;13935;55.672;37.764;2024-02-26T05:05:44;101146.81;;;-0.37;97.32
26192;BME280;13935;55.672;37.764;2024-02-26T05:06:47;101152.91;;;-0.50;98.16
26192;BME280;13935;55.672;37.764;2024-02-26T05:07:49;101150.44;;;-0.47;98.13
26192;BME280;13935;55.672;37.764;2024-02-26T05:08:52;101150.09;;;-0.40;97.62
26192;BME280;13935;55.672;37.764;2024-02-26T05:09:54;101150.91;;;-0.40;97.29
26192;BME280;13935;55.672;37.764;2024-02-26T05:10:57;101141.56;;;-0.62;99.07
26192;BME280;13935;55.672;37.764;2024-02-26T05:12:01;101141.16;;;-0.41;98.91
26192;BME280;13935;55.672;37.764;2024-02-26T05:13:05;101138.28;;;-0.54;99.46
26192;BME280;13935;55.672;37.764;2024-02-26T05:14:09;101140.09;;;-0.45;99.64
26192;BME280;13935;55.672;37.764;2024-02-26T05:15:11;101137.53;;;-0.31;99.64
26192;BME280;13935;55.672;37.764;2024-02-26T05:16:20;101133.13;;;-0.27;97.72
26192;BME280;13935;55.672;37.764;2024-02-26T05:17:26;101148.41;;;-0.31;98.20
26192;BME280;13935;55.672;37.764;2024-02-26T05:18:28;101132.81;;;-0.21;98.09
26192;BME280;13935;55.672;37.764;2024-02-26T05:19:30;101143.41;;;-0.19;97.71
26192;BME280;13935;55.672;37.764;2024-02-26T05:20:42;101150.53;;;-0.23;97.35
26192;BME280;13935;55.672;37.764;2024-02-26T05:21:49;101146.22;;;-0.29;97.42
26192;BME280;13935;55.672;37.764;2024-02-26T05:22:55;101149.19;;;-0.31;96.94
26192;BME280;13935;55.672;37.764;2024-02-26T05:24:06;101149.78;;;-0.34;97.27
26192;BME280;13935;55.672;37.764;2024-02-26T05:25:10;101153.28;;;-0.28;97.48
26192;BME280;13935;55.672;37.764;2024-02-26T05:26:21;101147.25;;;-0.25;98.77
26192;BME280;13935;55.672;37.764;2024-02-26T05:27:24;101146.88;;;-0.42;98.53
26192;BME280;13935;55.672;37.764;2024-02-26T05:28:32;101150.34;;;-0.37;98.05
26192;BME280;13935;55.672;37.764;2024-02-26T05:29:37;101140.97;;;-0.21;97.80
26192;BME280;13935;55.672;37.764;2024-02-26T05:30:41;101159.88;;;-0.39;98.88
26192;BME280;13935;55.672;37.764;2024-02-26T05:31:44;101145.63;;;-0.26;98.79
26192;BME280;13935;55.672;37.764;2024-02-26T05:32:46;101154.00;;;-0.18;98.60
26192;BME280;13935;55.672;37.764;2024-02-26T05:33:52;101148.31;;;-0.21;97.81
26192;BME280;13935;55.672;37.764;2024-02-26T05:34:59;101145.81;;;-0.13;99.02
26192;BME280;13935;55.672;37.764;2024-02-26T05:36:05;101145.34;;;-0.20;97.35
26192;BME280;13935;55.672;37.764;2024-02-26T05:37:08;101150.09;;;-0.35;98.03
26192;BME280;13935;55.672;37.764;2024-02-26T05:38:11;101149.38;;;-0.17;98.36
26192;BME280;13935;55.672;37.764;2024-02-26T05:39:14;101143.75;;;-0.31;98.80
26192;BME280;13935;55.672;37.764;2024-02-26T05:40:22;101144.44;;;-0.10;97.83
26192;BME280;13935;55.672;37.764;2024-02-26T05:41:24;101141.53;;;-0.19;97.77
26192;BME280;13935;55.672;37.764;2024-02-26T05:42:28;101144.44;;;-0.10;96.87
26192;BME280;13935;55.672;37.764;2024-02-26T05:43:30;101143.34;;;-0.09;97.27
26192;BME280;13935;55.672;37.764;2024-02-26T05:44:32;101143.69;;;-0.21;97.26
26192;BME280;13935;55.672;37.764;2024-02-26T05:45:34;101157.28;;;-0.21;97.79
26192;BME280;13935;55.672;37.764;2024-02-26T05:46:36;101140.09;;;-0.11;97.30
26192;BME280;13935;55.672;37.764;2024-02-26T05:47:38;101139.00;;;-0.10;96.33
26192;BME280;13935;55.672;37.764;2024-02-26T05:48:48;101140.28;;;-0.03;96.69
26192;BME280;13935;55.672;37.764;2024-02-26T05:49:51;101145.38;;;0.03;96.45
26192;BME280;13935;55.672;37.764;2024-02-26T05:50:53;101148.66;;;0.00;96.35
26192;BME280;13935;55.672;37.764;2024-02-26T05:51:55;101147.72;;;-0.13;96.06
26192;BME280;13935;55.672;37.764;2024-02-26T05:52:57;101141.06;;;-0.03;96.28
26192;BME280;13935;55.672;37.764;2024-02-26T05:54:00;101141.41;;;-0.09;97.28
26192;BME280;13935;55.672;37.764;2024-02-26T05:55:02;101153.16;;;-0.13;97.49
26192;BME280;13935;55.672;37.764;2024-02-26T05:56:05;101150.38;;;-0.08;97.41
26192;BME280;13935;55.672;37.764;2024-02-26T05:57:07;101148.44;;;-0.03;97.23
26192;BME280;13935;55.672;37.764;2024-02-26T05:58:09;101145.00;;;-0.13;96.75
26192;BME280;13935;55.672;37.764;2024-02-26T05:59:11;101147.63;;;-0.03;96.72
26192;BME280;13935;55.672;37.764;2024-02-26T06:00:13;101137.88;;;0.19;96.07
26192;BME280;13935;55.672;37.764;2024-02-26T06:01:16;101146.50;;;-0.03;95.95
26192;BME280;13935;55.672;37.764;2024-02-26T06:02:19;101148.09;;;0.03;96.44
26192;BME280;13935;55.672;37.764;2024-02-26T06:03:21;101141.72;;;-0.10;97.20
26192;BME280;13935;55.672;37.764;2024-02-26T06:04:24;101149.03;;;-0.11;97.01
26192;BME280;13935;55.672;37.764;2024-02-26T06:05:26;101148.44;;;-0.03;97.26
26192;BME280;13935;55.672;37.764;2024-02-26T06:06:28;101147.00;;;0.04;97.71
26192;BME280;13935;55.672;37.764;2024-02-26T06:07:30;101149.09;;;0.12;97.42